sensor_id;sensor_type;location;lat;lon;timestamp;P1;durP1;ratioP1;P2;durP2;ratioP2
44139;SDS011;29803;51.048;4.686;2023-08-06T00:01:38;9.38;;;2.58;;
44139;SDS011;29803;51.048;4.686;2023-08-06T00:04:08;9.00;;;2.70;;
44139;SDS011;29803;51.048;4.686;2023-08-06T00:06:39;9.07;;;2.28;;
44139;SDS011;29803;51.048;4.686;2023-08-06T00:09:09;8.32;;;2.30;;
44139;SDS011;29803;51.048;4.686;2023-08-06T00:11:40;5.80;;;2.00;;
44139;SDS011;29803;51.048;4.686;2023-08-06T00:14:11;11.75;;;2.72;;
44139;SDS011;29803;51.048;4.686;2023-08-06T00:16:43;6.40;;;2.25;;
44139;SDS011;29803;51.048;4.686;2023-08-06T00:19:14;10.15;;;1.80;;
44139;SDS011;29803;51.048;4.686;2023-08-06T00:21:45;7.03;;;2.50;;
44139;SDS011;29803;51.048;4.686;2023-08-06T00:24:16;8.75;;;2.63;;
44139;SDS011;29803;51.048;4.686;2023-08-06T00:26:46;8.27;;;2.50;;
44139;SDS011;29803;51.048;4.686;2023-08-06T00:29:17;8.00;;;2.45;;
44139;SDS011;29803;51.048;4.686;2023-08-06T00:31:47;7.15;;;2.30;;
44139;SDS011;29803;51.048;4.686;2023-08-06T00:34:18;4.70;;;2.60;;
44139;SDS011;29803;51.048;4.686;2023-08-06T00:36:48;11.63;;;2.78;;
44139;SDS011;29803;51.048;4.686;2023-08-06T00:39:19;7.47;;;2.47;;
44139;SDS011;29803;51.048;4.686;2023-08-06T00:41:49;7.55;;;2.60;;
44139;SDS011;29803;51.048;4.686;2023-08-06T00:44:20;12.05;;;2.70;;
44139;SDS011;29803;51.048;4.686;2023-08-06T00:46:50;8.43;;;2.30;;
44139;SDS011;29803;51.048;4.686;2023-08-06T00:49:21;7.40;;;2.70;;
44139;SDS011;29803;51.048;4.686;2023-08-06T00:51:52;8.05;;;2.38;;
44139;SDS011;29803;51.048;4.686;2023-08-06T00:54:23;5.25;;;2.55;;
44139;SDS011;29803;51.048;4.686;2023-08-06T00:56:55;8.98;;;2.58;;
44139;SDS011;29803;51.048;4.686;2023-08-06T00:59:26;8.68;;;2.72;;
44139;SDS011;29803;51.048;4.686;2023-08-06T01:01:57;8.10;;;2.67;;
44139;SDS011;29803;51.048;4.686;2023-08-06T01:04:28;7.40;;;2.78;;
44139;SDS011;29803;51.048;4.686;2023-08-06T01:15:32;8.70;;;2.83;;
44139;SDS011;29803;51.048;4.686;2023-08-06T01:18:08;9.10;;;3.85;;
44139;SDS011;29803;51.048;4.686;2023-08-06T01:20:39;8.18;;;3.00;;
44139;SDS011;29803;51.048;4.686;2023-08-06T01:23:09;8.15;;;3.10;;
44139;SDS011;29803;51.048;4.686;2023-08-06T01:31:36;12.52;;;3.53;;
44139;SDS011;29803;51.048;4.686;2023-08-06T01:34:09;8.90;;;2.83;;
44139;SDS011;29803;51.048;4.686;2023-08-06T01:36:43;9.50;;;3.35;;
44139;SDS011;29803;51.048;4.686;2023-08-06T01:39:15;7.90;;;3.63;;
44139;SDS011;29803;51.048;4.686;2023-08-06T01:41:45;13.52;;;3.45;;
44139;SDS011;29803;51.048;4.686;2023-08-06T01:44:16;10.65;;;4.10;;
44139;SDS011;29803;51.048;4.686;2023-08-06T01:46:47;12.07;;;3.95;;
44139;SDS011;29803;51.048;4.686;2023-08-06T01:49:18;8.50;;;3.42;;
44139;SDS011;29803;51.048;4.686;2023-08-06T01:51:49;8.20;;;3.08;;
44139;SDS011;29803;51.048;4.686;2023-08-06T01:54:20;12.07;;;3.70;;
44139;SDS011;29803;51.048;4.686;2023-08-06T01:56:50;11.02;;;3.70;;
44139;SDS011;29803;51.048;4.686;2023-08-06T01:59:21;7.38;;;3.47;;
44139;SDS011;29803;51.048;4.686;2023-08-06T02:01:51;10.40;;;4.03;;
44139;SDS011;29803;51.048;4.686;2023-08-06T02:04:22;10.80;;;3.20;;
44139;SDS011;29803;51.048;4.686;2023-08-06T02:06:53;9.20;;;3.53;;
44139;SDS011;29803;51.048;4.686;2023-08-06T02:09:23;6.65;;;3.65;;
44139;SDS011;29803;51.048;4.686;2023-08-06T02:11:54;12.13;;;4.07;;
44139;SDS011;29803;51.048;4.686;2023-08-06T02:14:25;5.53;;;3.40;;
44139;SDS011;29803;51.048;4.686;2023-08-06T02:16:56;11.38;;;3.63;;
44139;SDS011;29803;51.048;4.686;2023-08-06T02:19:26;8.48;;;3.13;;
44139;SDS011;29803;51.048;4.686;2023-08-06T02:21:57;7.15;;;3.33;;
44139;SDS011;29803;51.048;4.686;2023-08-06T02:24:27;9.45;;;4.22;;
44139;SDS011;29803;51.048;4.686;2023-08-06T02:26:58;13.95;;;4.10;;
44139;SDS011;29803;51.048;4.686;2023-08-06T02:29:29;11.15;;;4.25;;
44139;SDS011;29803;51.048;4.686;2023-08-06T02:31:59;9.02;;;4.43;;
44139;SDS011;29803;51.048;4.686;2023-08-06T02:34:32;12.13;;;4.20;;
44139;SDS011;29803;51.048;4.686;2023-08-06T02:37:03;10.65;;;4.32;;
44139;SDS011;29803;51.048;4.686;2023-08-06T02:39:35;10.50;;;4.15;;
44139;SDS011;29803;51.048;4.686;2023-08-06T02:42:09;11.80;;;4.40;;
44139;SDS011;29803;51.048;4.686;2023-08-06T02:44:40;10.27;;;4.60;;
44139;SDS011;29803;51.048;4.686;2023-08-06T02:47:10;12.85;;;4.93;;
44139;SDS011;29803;51.048;4.686;2023-08-06T02:49:41;12.43;;;4.55;;
44139;SDS011;29803;51.048;4.686;2023-08-06T02:52:11;9.65;;;3.90;;
44139;SDS011;29803;51.048;4.686;2023-08-06T02:54:42;10.25;;;5.13;;
44139;SDS011;29803;51.048;4.686;2023-08-06T02:57:12;14.05;;;5.10;;
44139;SDS011;29803;51.048;4.686;2023-08-06T03:00:02;11.10;;;4.32;;
44139;SDS011;29803;51.048;4.686;2023-08-06T03:02:32;12.50;;;4.75;;
44139;SDS011;29803;51.048;4.686;2023-08-06T03:05:03;10.88;;;5.40;;
44139;SDS011;29803;51.048;4.686;2023-08-06T03:07:34;10.35;;;4.97;;
44139;SDS011;29803;51.048;4.686;2023-08-06T03:10:07;9.30;;;4.82;;
44139;SDS011;29803;51.048;4.686;2023-08-06T03:12:38;10.98;;;5.05;;
44139;SDS011;29803;51.048;4.686;2023-08-06T03:15:09;11.57;;;4.82;;
44139;SDS011;29803;51.048;4.686;2023-08-06T03:17:40;12.93;;;5.20;;
44139;SDS011;29803;51.048;4.686;2023-08-06T03:20:11;14.45;;;5.15;;
44139;SDS011;29803;51.048;4.686;2023-08-06T03:22:41;10.13;;;4.90;;
44139;SDS011;29803;51.048;4.686;2023-08-06T03:25:12;12.10;;;5.07;;
44139;SDS011;29803;51.048;4.686;2023-08-06T03:27:43;11.35;;;5.85;;
44139;SDS011;29803;51.048;4.686;2023-08-06T03:30:14;12.50;;;5.22;;
44139;SDS011;29803;51.048;4.686;2023-08-06T03:32:44;10.05;;;5.57;;
44139;SDS011;29803;51.048;4.686;2023-08-06T03:35:15;10.20;;;5.25;;
44139;SDS011;29803;51.048;4.686;2023-08-06T03:37:46;13.15;;;5.35;;
44139;SDS011;29803;51.048;4.686;2023-08-06T03:40:16;17.65;;;5.03;;
44139;SDS011;29803;51.048;4.686;2023-08-06T03:42:47;12.93;;;5.05;;
44139;SDS011;29803;51.048;4.686;2023-08-06T03:45:18;11.98;;;5.95;;
44139;SDS011;29803;51.048;4.686;2023-08-06T03:47:48;11.27;;;5.40;;
44139;SDS011;29803;51.048;4.686;2023-08-06T03:53:45;16.02;;;6.15;;
44139;SDS011;29803;51.048;4.686;2023-08-06T03:56:16;14.48;;;6.43;;
44139;SDS011;29803;51.048;4.686;2023-08-06T03:58:47;18.33;;;7.32;;
44139;SDS011;29803;51.048;4.686;2023-08-06T04:01:17;18.05;;;7.55;;
44139;SDS011;29803;51.048;4.686;2023-08-06T04:03:48;17.15;;;6.70;;
44139;SDS011;29803;51.048;4.686;2023-08-06T04:06:18;22.02;;;7.47;;
44139;SDS011;29803;51.048;4.686;2023-08-06T04:08:49;17.40;;;7.15;;
44139;SDS011;29803;51.048;4.686;2023-08-06T04:11:19;19.50;;;7.68;;
44139;SDS011;29803;51.048;4.686;2023-08-06T04:13:50;18.13;;;7.82;;
44139;SDS011;29803;51.048;4.686;2023-08-06T04:16:21;18.60;;;7.10;;
44139;SDS011;29803;51.048;4.686;2023-08-06T04:18:51;16.10;;;7.05;;
44139;SDS011;29803;51.048;4.686;2023-08-06T04:21:23;15.20;;;6.50;;
44139;SDS011;29803;51.048;4.686;2023-08-06T04:23:54;14.25;;;5.60;;
44139;SDS011;29803;51.048;4.686;2023-08-06T04:26:24;5.82;;;2.65;;
44139;SDS011;29803;51.048;4.686;2023-08-06T04:28:55;3.83;;;2.20;;
44139;SDS011;29803;51.048;4.686;2023-08-06T04:31:25;1.70;;;0.93;;
44139;SDS011;29803;51.048;4.686;2023-08-06T04:33:56;1.20;;;1.00;;
44139;SDS011;29803;51.048;4.686;2023-08-06T04:36:26;1.30;;;0.90;;
44139;SDS011;29803;51.048;4.686;2023-08-06T04:38:57;0.82;;;0.52;;
44139;SDS011;29803;51.048;4.686;2023-08-06T04:41:27;1.10;;;0.65;;
44139;SDS011;29803;51.048;4.686;2023-08-06T04:43:58;3.20;;;0.52;;
44139;SDS011;29803;51.048;4.686;2023-08-06T04:46:29;4.95;;;0.90;;
44139;SDS011;29803;51.048;4.686;2023-08-06T04:48:59;3.20;;;1.35;;
44139;SDS011;29803;51.048;4.686;2023-08-06T04:51:30;1.90;;;1.33;;
44139;SDS011;29803;51.048;4.686;2023-08-06T04:54:00;2.00;;;1.50;;
44139;SDS011;29803;51.048;4.686;2023-08-06T04:56:31;6.93;;;2.38;;
44139;SDS011;29803;51.048;4.686;2023-08-06T04:59:02;1.98;;;1.10;;
44139;SDS011;29803;51.048;4.686;2023-08-06T05:01:33;2.13;;;1.40;;
44139;SDS011;29803;51.048;4.686;2023-08-06T05:04:03;3.17;;;1.52;;
44139;SDS011;29803;51.048;4.686;2023-08-06T05:06:34;5.70;;;2.55;;
44139;SDS011;29803;51.048;4.686;2023-08-06T05:09:04;7.22;;;3.63;;
44139;SDS011;29803;51.048;4.686;2023-08-06T05:11:36;11.75;;;5.15;;
44139;SDS011;29803;51.048;4.686;2023-08-06T05:14:06;8.40;;;5.00;;
44139;SDS011;29803;51.048;4.686;2023-08-06T05:16:37;10.27;;;5.65;;
44139;SDS011;29803;51.048;4.686;2023-08-06T05:19:08;12.82;;;6.65;;
44139;SDS011;29803;51.048;4.686;2023-08-06T05:21:38;19.88;;;7.22;;
44139;SDS011;29803;51.048;4.686;2023-08-06T05:24:09;15.18;;;7.68;;
44139;SDS011;29803;51.048;4.686;2023-08-06T05:26:39;11.60;;;7.47;;
44139;SDS011;29803;51.048;4.686;2023-08-06T05:29:10;16.10;;;7.50;;
44139;SDS011;29803;51.048;4.686;2023-08-06T05:31:40;15.32;;;6.57;;
44139;SDS011;29803;51.048;4.686;2023-08-06T05:34:11;16.23;;;7.75;;
44139;SDS011;29803;51.048;4.686;2023-08-06T05:36:41;18.75;;;8.50;;
44139;SDS011;29803;51.048;4.686;2023-08-06T05:39:12;14.90;;;7.38;;
44139;SDS011;29803;51.048;4.686;2023-08-06T05:41:42;15.65;;;7.00;;
44139;SDS011;29803;51.048;4.686;2023-08-06T05:44:13;14.98;;;5.28;;
44139;SDS011;29803;51.048;4.686;2023-08-06T05:46:44;15.18;;;5.32;;
44139;SDS011;29803;51.048;4.686;2023-08-06T05:49:14;15.90;;;5.45;;
44139;SDS011;29803;51.048;4.686;2023-08-06T05:51:45;15.18;;;4.88;;
44139;SDS011;29803;51.048;4.686;2023-08-06T05:54:15;11.27;;;4.50;;
44139;SDS011;29803;51.048;4.686;2023-08-06T05:56:46;17.33;;;4.95;;
44139;SDS011;29803;51.048;4.686;2023-08-06T05:59:16;13.02;;;4.60;;
44139;SDS011;29803;51.048;4.686;2023-08-06T06:01:47;9.15;;;3.67;;
44139;SDS011;29803;51.048;4.686;2023-08-06T06:04:17;9.30;;;3.42;;
44139;SDS011;29803;51.048;4.686;2023-08-06T06:06:48;18.52;;;4.72;;
44139;SDS011;29803;51.048;4.686;2023-08-06T06:09:19;13.63;;;3.67;;
44139;SDS011;29803;51.048;4.686;2023-08-06T06:11:49;12.52;;;4.80;;
44139;SDS011;29803;51.048;4.686;2023-08-06T06:14:20;13.48;;;3.85;;
44139;SDS011;29803;51.048;4.686;2023-08-06T06:16:50;15.50;;;4.35;;
44139;SDS011;29803;51.048;4.686;2023-08-06T06:19:23;11.82;;;4.20;;
44139;SDS011;29803;51.048;4.686;2023-08-06T06:21:53;8.63;;;4.03;;
44139;SDS011;29803;51.048;4.686;2023-08-06T06:24:24;14.30;;;4.45;;
44139;SDS011;29803;51.048;4.686;2023-08-06T06:26:54;14.52;;;4.80;;
44139;SDS011;29803;51.048;4.686;2023-08-06T06:29:25;18.55;;;5.85;;
44139;SDS011;29803;51.048;4.686;2023-08-06T06:31:56;19.02;;;5.80;;
44139;SDS011;29803;51.048;4.686;2023-08-06T06:34:26;14.02;;;5.90;;
44139;SDS011;29803;51.048;4.686;2023-08-06T06:36:57;15.27;;;5.50;;
44139;SDS011;29803;51.048;4.686;2023-08-06T06:39:27;17.48;;;6.57;;
44139;SDS011;29803;51.048;4.686;2023-08-06T06:41:58;15.65;;;5.95;;
44139;SDS011;29803;51.048;4.686;2023-08-06T06:44:29;20.75;;;5.93;;
44139;SDS011;29803;51.048;4.686;2023-08-06T06:46:59;17.30;;;6.22;;
44139;SDS011;29803;51.048;4.686;2023-08-06T06:49:29;16.15;;;4.90;;
44139;SDS011;29803;51.048;4.686;2023-08-06T06:52:00;19.52;;;5.72;;
44139;SDS011;29803;51.048;4.686;2023-08-06T06:54:30;11.05;;;4.70;;
44139;SDS011;29803;51.048;4.686;2023-08-06T06:57:01;16.05;;;4.95;;
44139;SDS011;29803;51.048;4.686;2023-08-06T06:59:31;16.80;;;4.43;;
44139;SDS011;29803;51.048;4.686;2023-08-06T07:02:02;14.43;;;4.72;;
44139;SDS011;29803;51.048;4.686;2023-08-06T07:04:33;16.80;;;4.68;;
44139;SDS011;29803;51.048;4.686;2023-08-06T07:07:03;12.50;;;4.43;;
44139;SDS011;29803;51.048;4.686;2023-08-06T07:09:34;18.45;;;4.95;;
44139;SDS011;29803;51.048;4.686;2023-08-06T07:12:04;12.13;;;4.03;;
44139;SDS011;29803;51.048;4.686;2023-08-06T07:14:36;13.70;;;4.15;;
44139;SDS011;29803;51.048;4.686;2023-08-06T07:17:06;18.75;;;4.43;;
44139;SDS011;29803;51.048;4.686;2023-08-06T07:19:37;17.42;;;4.55;;
44139;SDS011;29803;51.048;4.686;2023-08-06T07:22:07;12.32;;;4.95;;
44139;SDS011;29803;51.048;4.686;2023-08-06T07:24:38;14.75;;;4.05;;
44139;SDS011;29803;51.048;4.686;2023-08-06T07:27:08;31.73;;;5.32;;
44139;SDS011;29803;51.048;4.686;2023-08-06T07:29:39;19.23;;;4.13;;
44139;SDS011;29803;51.048;4.686;2023-08-06T07:32:09;12.30;;;4.40;;
44139;SDS011;29803;51.048;4.686;2023-08-06T07:34:40;8.32;;;2.90;;
44139;SDS011;29803;51.048;4.686;2023-08-06T07:37:10;16.27;;;3.00;;
44139;SDS011;29803;51.048;4.686;2023-08-06T07:39:41;13.25;;;3.30;;
44139;SDS011;29803;51.048;4.686;2023-08-06T07:42:12;8.02;;;2.60;;
44139;SDS011;29803;51.048;4.686;2023-08-06T07:44:43;17.48;;;2.92;;
44139;SDS011;29803;51.048;4.686;2023-08-06T07:47:13;9.60;;;2.65;;
44139;SDS011;29803;51.048;4.686;2023-08-06T07:49:44;7.90;;;2.15;;
44139;SDS011;29803;51.048;4.686;2023-08-06T07:52:14;12.55;;;1.92;;
44139;SDS011;29803;51.048;4.686;2023-08-06T07:54:45;9.82;;;2.03;;
44139;SDS011;29803;51.048;4.686;2023-08-06T07:57:15;15.45;;;2.08;;
44139;SDS011;29803;51.048;4.686;2023-08-06T07:59:46;13.20;;;1.80;;
44139;SDS011;29803;51.048;4.686;2023-08-06T08:02:17;8.77;;;1.98;;
44139;SDS011;29803;51.048;4.686;2023-08-06T08:04:47;8.52;;;1.85;;
44139;SDS011;29803;51.048;4.686;2023-08-06T08:07:18;13.52;;;2.22;;
44139;SDS011;29803;51.048;4.686;2023-08-06T08:09:49;14.57;;;2.65;;
44139;SDS011;29803;51.048;4.686;2023-08-06T08:12:20;11.77;;;1.67;;
44139;SDS011;29803;51.048;4.686;2023-08-06T08:14:50;16.73;;;2.60;;
44139;SDS011;29803;51.048;4.686;2023-08-06T08:17:21;11.82;;;2.03;;
44139;SDS011;29803;51.048;4.686;2023-08-06T08:19:51;13.52;;;2.65;;
44139;SDS011;29803;51.048;4.686;2023-08-06T08:22:22;9.07;;;2.00;;
44139;SDS011;29803;51.048;4.686;2023-08-06T08:24:52;13.15;;;2.08;;
44139;SDS011;29803;51.048;4.686;2023-08-06T08:27:23;15.80;;;2.50;;
44139;SDS011;29803;51.048;4.686;2023-08-06T08:29:53;13.80;;;1.83;;
44139;SDS011;29803;51.048;4.686;2023-08-06T08:32:24;9.80;;;1.70;;
44139;SDS011;29803;51.048;4.686;2023-08-06T08:34:54;13.68;;;2.10;;
44139;SDS011;29803;51.048;4.686;2023-08-06T08:37:24;13.90;;;1.92;;
44139;SDS011;29803;51.048;4.686;2023-08-06T08:39:55;6.45;;;1.83;;
44139;SDS011;29803;51.048;4.686;2023-08-06T08:42:26;19.83;;;3.30;;
44139;SDS011;29803;51.048;4.686;2023-08-06T08:44:57;9.45;;;1.80;;
44139;SDS011;29803;51.048;4.686;2023-08-06T08:47:27;9.18;;;1.50;;
44139;SDS011;29803;51.048;4.686;2023-08-06T08:49:58;13.98;;;1.85;;
44139;SDS011;29803;51.048;4.686;2023-08-06T08:52:30;11.35;;;2.33;;
44139;SDS011;29803;51.048;4.686;2023-08-06T08:55:02;10.90;;;2.00;;
44139;SDS011;29803;51.048;4.686;2023-08-06T08:57:33;14.02;;;2.20;;
44139;SDS011;29803;51.048;4.686;2023-08-06T09:00:03;11.45;;;1.65;;
44139;SDS011;29803;51.048;4.686;2023-08-06T09:02:35;13.70;;;2.17;;
44139;SDS011;29803;51.048;4.686;2023-08-06T09:05:08;12.40;;;1.92;;
44139;SDS011;29803;51.048;4.686;2023-08-06T09:07:41;10.50;;;1.90;;
44139;SDS011;29803;51.048;4.686;2023-08-06T09:10:15;7.65;;;1.85;;
44139;SDS011;29803;51.048;4.686;2023-08-06T09:12:47;18.15;;;2.03;;
44139;SDS011;29803;51.048;4.686;2023-08-06T09:15:23;11.07;;;2.53;;
44139;SDS011;29803;51.048;4.686;2023-08-06T09:17:55;15.23;;;2.28;;
44139;SDS011;29803;51.048;4.686;2023-08-06T09:20:26;8.50;;;2.42;;
44139;SDS011;29803;51.048;4.686;2023-08-06T09:22:56;11.10;;;2.05;;
44139;SDS011;29803;51.048;4.686;2023-08-06T09:25:28;11.23;;;2.08;;
44139;SDS011;29803;51.048;4.686;2023-08-06T09:28:01;12.38;;;1.52;;
44139;SDS011;29803;51.048;4.686;2023-08-06T09:30:35;15.40;;;1.67;;
44139;SDS011;29803;51.048;4.686;2023-08-06T09:33:08;10.40;;;1.80;;
44139;SDS011;29803;51.048;4.686;2023-08-06T09:35:57;11.35;;;1.55;;
44139;SDS011;29803;51.048;4.686;2023-08-06T09:38:39;15.10;;;2.33;;
44139;SDS011;29803;51.048;4.686;2023-08-06T09:41:10;16.08;;;2.55;;
44139;SDS011;29803;51.048;4.686;2023-08-06T09:43:55;9.45;;;2.10;;
44139;SDS011;29803;51.048;4.686;2023-08-06T09:46:26;9.35;;;2.15;;
44139;SDS011;29803;51.048;4.686;2023-08-06T09:48:58;6.47;;;1.65;;
44139;SDS011;29803;51.048;4.686;2023-08-06T09:51:29;7.50;;;1.55;;
44139;SDS011;29803;51.048;4.686;2023-08-06T09:54:00;9.55;;;1.65;;
44139;SDS011;29803;51.048;4.686;2023-08-06T09:56:32;8.00;;;1.33;;
44139;SDS011;29803;51.048;4.686;2023-08-06T09:59:07;8.73;;;0.90;;
44139;SDS011;29803;51.048;4.686;2023-08-06T10:01:38;4.82;;;0.93;;
44139;SDS011;29803;51.048;4.686;2023-08-06T10:04:09;6.40;;;1.95;;
44139;SDS011;29803;51.048;4.686;2023-08-06T10:06:42;9.70;;;1.13;;
44139;SDS011;29803;51.048;4.686;2023-08-06T10:09:13;9.13;;;1.42;;
44139;SDS011;29803;51.048;4.686;2023-08-06T10:11:44;5.75;;;1.17;;
44139;SDS011;29803;51.048;4.686;2023-08-06T10:14:22;5.35;;;1.27;;
44139;SDS011;29803;51.048;4.686;2023-08-06T10:16:57;8.20;;;1.50;;
44139;SDS011;29803;51.048;4.686;2023-08-06T10:19:29;12.40;;;2.05;;
44139;SDS011;29803;51.048;4.686;2023-08-06T10:22:11;16.05;;;2.10;;
44139;SDS011;29803;51.048;4.686;2023-08-06T10:24:53;9.88;;;1.30;;
44139;SDS011;29803;51.048;4.686;2023-08-06T10:33:14;6.93;;;1.13;;
44139;SDS011;29803;51.048;4.686;2023-08-06T10:35:47;6.45;;;1.17;;
44139;SDS011;29803;51.048;4.686;2023-08-06T10:38:20;11.70;;;1.77;;
44139;SDS011;29803;51.048;4.686;2023-08-06T10:46:25;7.75;;;1.52;;
44139;SDS011;29803;51.048;4.686;2023-08-06T10:48:57;7.53;;;2.05;;
44139;SDS011;29803;51.048;4.686;2023-08-06T10:51:28;7.18;;;1.50;;
44139;SDS011;29803;51.048;4.686;2023-08-06T10:53:59;9.30;;;1.25;;
44139;SDS011;29803;51.048;4.686;2023-08-06T10:56:30;8.63;;;1.50;;
44139;SDS011;29803;51.048;4.686;2023-08-06T10:59:01;8.60;;;1.83;;
44139;SDS011;29803;51.048;4.686;2023-08-06T11:01:31;7.85;;;1.50;;
44139;SDS011;29803;51.048;4.686;2023-08-06T11:04:05;8.15;;;1.20;;
44139;SDS011;29803;51.048;4.686;2023-08-06T11:06:35;8.35;;;1.38;;
44139;SDS011;29803;51.048;4.686;2023-08-06T11:09:06;6.22;;;1.75;;
44139;SDS011;29803;51.048;4.686;2023-08-06T11:11:37;3.72;;;0.85;;
44139;SDS011;29803;51.048;4.686;2023-08-06T11:14:07;8.30;;;1.38;;
44139;SDS011;29803;51.048;4.686;2023-08-06T11:16:45;15.52;;;1.38;;
44139;SDS011;29803;51.048;4.686;2023-08-06T11:19:15;4.78;;;1.25;;
44139;SDS011;29803;51.048;4.686;2023-08-06T11:21:46;7.85;;;0.90;;
44139;SDS011;29803;51.048;4.686;2023-08-06T11:24:17;8.95;;;0.88;;
44139;SDS011;29803;51.048;4.686;2023-08-06T11:26:48;6.03;;;0.60;;
44139;SDS011;29803;51.048;4.686;2023-08-06T11:29:18;5.85;;;0.90;;
44139;SDS011;29803;51.048;4.686;2023-08-06T11:31:49;1.17;;;0.47;;
44139;SDS011;29803;51.048;4.686;2023-08-06T11:34:19;8.32;;;1.35;;
44139;SDS011;29803;51.048;4.686;2023-08-06T11:36:50;4.18;;;0.60;;
44139;SDS011;29803;51.048;4.686;2023-08-06T11:39:20;8.40;;;1.23;;
44139;SDS011;29803;51.048;4.686;2023-08-06T11:41:51;4.20;;;1.08;;
44139;SDS011;29803;51.048;4.686;2023-08-06T11:44:22;5.75;;;1.40;;
44139;SDS011;29803;51.048;4.686;2023-08-06T11:46:53;4.43;;;1.27;;
44139;SDS011;29803;51.048;4.686;2023-08-06T11:49:37;15.45;;;1.60;;
44139;SDS011;29803;51.048;4.686;2023-08-06T11:54:43;5.88;;;1.48;;
44139;SDS011;29803;51.048;4.686;2023-08-06T11:57:13;6.45;;;1.30;;
44139;SDS011;29803;51.048;4.686;2023-08-06T11:59:44;11.05;;;1.63;;
44139;SDS011;29803;51.048;4.686;2023-08-06T12:02:15;5.13;;;1.60;;
44139;SDS011;29803;51.048;4.686;2023-08-06T12:04:58;5.10;;;1.38;;
44139;SDS011;29803;51.048;4.686;2023-08-06T12:07:30;9.50;;;2.22;;
44139;SDS011;29803;51.048;4.686;2023-08-06T12:10:02;14.98;;;2.08;;
44139;SDS011;29803;51.048;4.686;2023-08-06T12:12:33;14.32;;;2.60;;
44139;SDS011;29803;51.048;4.686;2023-08-06T12:15:04;11.43;;;1.63;;
44139;SDS011;29803;51.048;4.686;2023-08-06T12:17:36;8.80;;;2.00;;
44139;SDS011;29803;51.048;4.686;2023-08-06T12:20:07;14.77;;;3.35;;
44139;SDS011;29803;51.048;4.686;2023-08-06T12:22:38;8.15;;;1.58;;
44139;SDS011;29803;51.048;4.686;2023-08-06T12:25:10;8.68;;;1.77;;
44139;SDS011;29803;51.048;4.686;2023-08-06T12:27:43;15.40;;;2.65;;
44139;SDS011;29803;51.048;4.686;2023-08-06T12:30:14;14.40;;;2.10;;
44139;SDS011;29803;51.048;4.686;2023-08-06T12:32:45;10.45;;;1.90;;
44139;SDS011;29803;51.048;4.686;2023-08-06T12:35:15;11.45;;;2.45;;
44139;SDS011;29803;51.048;4.686;2023-08-06T12:37:46;11.80;;;2.50;;
44139;SDS011;29803;51.048;4.686;2023-08-06T12:40:17;7.50;;;1.92;;
44139;SDS011;29803;51.048;4.686;2023-08-06T12:42:47;12.18;;;2.55;;
44139;SDS011;29803;51.048;4.686;2023-08-06T12:45:19;11.10;;;2.17;;
44139;SDS011;29803;51.048;4.686;2023-08-06T12:47:51;16.65;;;2.45;;
44139;SDS011;29803;51.048;4.686;2023-08-06T12:50:22;18.02;;;3.17;;
44139;SDS011;29803;51.048;4.686;2023-08-06T12:52:52;13.48;;;2.40;;
44139;SDS011;29803;51.048;4.686;2023-08-06T12:55:23;14.07;;;2.58;;
44139;SDS011;29803;51.048;4.686;2023-08-06T12:57:53;19.52;;;2.83;;
44139;SDS011;29803;51.048;4.686;2023-08-06T13:00:25;16.73;;;2.05;;
44139;SDS011;29803;51.048;4.686;2023-08-06T13:02:57;13.45;;;1.83;;
44139;SDS011;29803;51.048;4.686;2023-08-06T13:05:27;12.88;;;2.05;;
44139;SDS011;29803;51.048;4.686;2023-08-06T13:07:58;11.43;;;2.17;;
44139;SDS011;29803;51.048;4.686;2023-08-06T13:10:28;13.30;;;1.95;;
44139;SDS011;29803;51.048;4.686;2023-08-06T13:13:01;11.02;;;2.05;;
44139;SDS011;29803;51.048;4.686;2023-08-06T13:15:31;9.48;;;1.83;;
44139;SDS011;29803;51.048;4.686;2023-08-06T13:18:02;14.93;;;2.10;;
44139;SDS011;29803;51.048;4.686;2023-08-06T13:20:33;16.27;;;2.30;;
44139;SDS011;29803;51.048;4.686;2023-08-06T13:23:03;13.13;;;2.70;;
44139;SDS011;29803;51.048;4.686;2023-08-06T13:25:35;6.60;;;1.50;;
44139;SDS011;29803;51.048;4.686;2023-08-06T13:28:07;8.80;;;1.30;;
44139;SDS011;29803;51.048;4.686;2023-08-06T13:30:37;12.48;;;1.67;;
44139;SDS011;29803;51.048;4.686;2023-08-06T13:33:12;8.27;;;1.85;;
44139;SDS011;29803;51.048;4.686;2023-08-06T13:35:42;13.70;;;2.17;;
44139;SDS011;29803;51.048;4.686;2023-08-06T13:38:13;10.48;;;1.45;;
44139;SDS011;29803;51.048;4.686;2023-08-06T13:40:43;12.50;;;1.60;;
44139;SDS011;29803;51.048;4.686;2023-08-06T13:43:14;9.13;;;1.73;;
44139;SDS011;29803;51.048;4.686;2023-08-06T13:45:47;12.48;;;1.90;;
44139;SDS011;29803;51.048;4.686;2023-08-06T13:48:17;6.90;;;1.40;;
44139;SDS011;29803;51.048;4.686;2023-08-06T13:50:48;9.48;;;1.58;;
44139;SDS011;29803;51.048;4.686;2023-08-06T13:53:18;6.82;;;1.45;;
44139;SDS011;29803;51.048;4.686;2023-08-06T13:55:49;4.13;;;1.17;;
44139;SDS011;29803;51.048;4.686;2023-08-06T13:58:19;8.55;;;1.98;;
44139;SDS011;29803;51.048;4.686;2023-08-06T14:00:50;5.40;;;1.02;;
44139;SDS011;29803;51.048;4.686;2023-08-06T14:03:23;8.48;;;1.40;;
44139;SDS011;29803;51.048;4.686;2023-08-06T14:05:53;6.38;;;1.90;;
44139;SDS011;29803;51.048;4.686;2023-08-06T14:08:26;7.13;;;1.17;;
44139;SDS011;29803;51.048;4.686;2023-08-06T14:10:57;8.85;;;1.23;;
44139;SDS011;29803;51.048;4.686;2023-08-06T14:13:27;10.00;;;1.52;;
44139;SDS011;29803;51.048;4.686;2023-08-06T14:15:58;14.88;;;2.00;;
44139;SDS011;29803;51.048;4.686;2023-08-06T14:18:28;9.98;;;1.90;;
44139;SDS011;29803;51.048;4.686;2023-08-06T14:20:59;10.73;;;1.80;;
44139;SDS011;29803;51.048;4.686;2023-08-06T14:23:29;4.95;;;1.65;;
44139;SDS011;29803;51.048;4.686;2023-08-06T14:26:00;11.82;;;1.70;;
44139;SDS011;29803;51.048;4.686;2023-08-06T14:28:30;9.50;;;2.40;;
44139;SDS011;29803;51.048;4.686;2023-08-06T14:31:01;9.98;;;1.63;;
44139;SDS011;29803;51.048;4.686;2023-08-06T14:33:31;9.60;;;1.95;;
44139;SDS011;29803;51.048;4.686;2023-08-06T14:36:02;15.02;;;2.33;;
44139;SDS011;29803;51.048;4.686;2023-08-06T14:38:32;3.50;;;1.50;;
44139;SDS011;29803;51.048;4.686;2023-08-06T14:41:03;10.75;;;1.88;;
44139;SDS011;29803;51.048;4.686;2023-08-06T14:43:33;10.15;;;1.80;;
44139;SDS011;29803;51.048;4.686;2023-08-06T14:46:04;10.27;;;2.25;;
44139;SDS011;29803;51.048;4.686;2023-08-06T14:48:34;12.77;;;2.47;;
44139;SDS011;29803;51.048;4.686;2023-08-06T14:51:05;16.08;;;2.50;;
44139;SDS011;29803;51.048;4.686;2023-08-06T14:53:36;16.48;;;2.25;;
44139;SDS011;29803;51.048;4.686;2023-08-06T14:56:06;12.02;;;2.70;;
44139;SDS011;29803;51.048;4.686;2023-08-06T14:58:37;11.40;;;1.45;;
44139;SDS011;29803;51.048;4.686;2023-08-06T15:01:08;8.38;;;1.55;;
44139;SDS011;29803;51.048;4.686;2023-08-06T15:03:38;13.85;;;1.67;;
44139;SDS011;29803;51.048;4.686;2023-08-06T15:06:09;6.32;;;1.85;;
44139;SDS011;29803;51.048;4.686;2023-08-06T15:08:39;15.05;;;1.52;;
44139;SDS011;29803;51.048;4.686;2023-08-06T15:11:10;10.05;;;1.70;;
44139;SDS011;29803;51.048;4.686;2023-08-06T15:13:40;9.20;;;1.70;;
44139;SDS011;29803;51.048;4.686;2023-08-06T15:16:11;8.45;;;1.75;;
44139;SDS011;29803;51.048;4.686;2023-08-06T15:18:41;5.22;;;2.08;;
44139;SDS011;29803;51.048;4.686;2023-08-06T15:21:13;10.18;;;1.63;;
44139;SDS011;29803;51.048;4.686;2023-08-06T15:23:44;8.05;;;1.60;;
44139;SDS011;29803;51.048;4.686;2023-08-06T15:26:14;11.77;;;1.92;;
44139;SDS011;29803;51.048;4.686;2023-08-06T15:28:45;13.82;;;2.13;;
44139;SDS011;29803;51.048;4.686;2023-08-06T15:31:18;10.43;;;2.28;;
44139;SDS011;29803;51.048;4.686;2023-08-06T15:33:50;22.33;;;3.80;;
44139;SDS011;29803;51.048;4.686;2023-08-06T15:36:20;14.50;;;2.33;;